sensor_id;sensor_type;location;lat;lon;timestamp;temperature;humidity
24226;DHT22;51462;51.422;5.514;2023-08-30T00:00:10;14.30;99.90
24226;DHT22;51462;51.422;5.514;2023-08-30T00:02:35;14.20;99.90
24226;DHT22;51462;51.422;5.514;2023-08-30T00:05:02;14.10;99.90
24226;DHT22;51462;51.422;5.514;2023-08-30T00:07:28;14.00;99.90
24226;DHT22;51462;51.422;5.514;2023-08-30T00:09:54;14.00;99.90
24226;DHT22;51462;51.422;5.514;2023-08-30T00:12:20;14.00;99.90
24226;DHT22;51462;51.422;5.514;2023-08-30T00:14:47;14.00;99.90
24226;DHT22;51462;51.422;5.514;2023-08-30T00:17:13;13.90;99.90
24226;DHT22;51462;51.422;5.514;2023-08-30T00:19:38;13.90;99.90
24226;DHT22;51462;51.422;5.514;2023-08-30T00:22:04;13.90;99.90
24226;DHT22;51462;51.422;5.514;2023-08-30T00:24:33;13.90;99.90
24226;DHT22;51462;51.422;5.514;2023-08-30T00:26:58;14.60;99.90
24226;DHT22;51462;51.422;5.514;2023-08-30T00:29:24;14.40;99.90
24226;DHT22;51462;51.422;5.514;2023-08-30T00:31:50;14.20;99.90
24226;DHT22;51462;51.422;5.514;2023-08-30T00:34:15;14.20;99.90
24226;DHT22;51462;51.422;5.514;2023-08-30T00:36:41;14.00;99.90
24226;DHT22;51462;51.422;5.514;2023-08-30T00:39:07;14.00;99.90
24226;DHT22;51462;51.422;5.514;2023-08-30T00:41:34;13.80;99.90
24226;DHT22;51462;51.422;5.514;2023-08-30T00:44:00;13.90;99.90
24226;DHT22;51462;51.422;5.514;2023-08-30T00:46:26;13.70;99.90
24226;DHT22;51462;51.422;5.514;2023-08-30T00:48:52;13.70;99.90
24226;DHT22;51462;51.422;5.514;2023-08-30T00:51:18;13.70;99.90
24226;DHT22;51462;51.422;5.514;2023-08-30T00:53:44;13.60;99.90
24226;DHT22;51462;51.422;5.514;2023-08-30T00:56:10;13.80;99.90
24226;DHT22;51462;51.422;5.514;2023-08-30T00:58:36;13.70;99.90
24226;DHT22;51462;51.422;5.514;2023-08-30T01:01:04;13.60;99.90
24226;DHT22;51462;51.422;5.514;2023-08-30T01:03:36;13.60;99.90
24226;DHT22;51462;51.422;5.514;2023-08-30T01:06:03;13.90;99.90
24226;DHT22;51462;51.422;5.514;2023-08-30T01:08:28;13.70;99.90
24226;DHT22;51462;51.422;5.514;2023-08-30T01:11:20;13.70;99.90
24226;DHT22;51462;51.422;5.514;2023-08-30T01:14:00;13.70;99.90
24226;DHT22;51462;51.422;5.514;2023-08-30T01:16:26;13.70;99.90
24226;DHT22;51462;51.422;5.514;2023-08-30T01:18:55;13.70;99.90
24226;DHT22;51462;51.422;5.514;2023-08-30T01:21:50;13.70;99.90
24226;DHT22;51462;51.422;5.514;2023-08-30T01:24:28;13.50;99.90
24226;DHT22;51462;51.422;5.514;2023-08-30T01:29:26;13.30;99.90
24226;DHT22;51462;51.422;5.514;2023-08-30T01:31:53;13.20;99.90
24226;DHT22;51462;51.422;5.514;2023-08-30T01:34:19;13.10;99.90
24226;DHT22;51462;51.422;5.514;2023-08-30T01:36:46;13.10;99.90
24226;DHT22;51462;51.422;5.514;2023-08-30T01:39:13;13.00;99.90
24226;DHT22;51462;51.422;5.514;2023-08-30T01:41:39;13.00;99.90
24226;DHT22;51462;51.422;5.514;2023-08-30T01:44:06;12.90;99.90
24226;DHT22;51462;51.422;5.514;2023-08-30T01:46:33;12.90;99.90
24226;DHT22;51462;51.422;5.514;2023-08-30T01:49:02;12.90;99.90
24226;DHT22;51462;51.422;5.514;2023-08-30T01:51:28;12.90;99.90
24226;DHT22;51462;51.422;5.514;2023-08-30T01:53:56;12.90;99.90
24226;DHT22;51462;51.422;5.514;2023-08-30T01:56:22;12.80;99.90
24226;DHT22;51462;51.422;5.514;2023-08-30T01:58:48;12.80;99.90
24226;DHT22;51462;51.422;5.514;2023-08-30T02:01:14;12.90;99.90
24226;DHT22;51462;51.422;5.514;2023-08-30T02:03:43;12.80;99.90
24226;DHT22;51462;51.422;5.514;2023-08-30T02:06:10;12.80;99.90
24226;DHT22;51462;51.422;5.514;2023-08-30T02:08:44;12.70;99.90
24226;DHT22;51462;51.422;5.514;2023-08-30T02:11:19;12.60;99.90
24226;DHT22;51462;51.422;5.514;2023-08-30T02:13:47;12.50;99.90
24226;DHT22;51462;51.422;5.514;2023-08-30T02:16:14;12.60;99.90
24226;DHT22;51462;51.422;5.514;2023-08-30T02:18:41;12.60;99.90
24226;DHT22;51462;51.422;5.514;2023-08-30T02:21:07;12.50;99.90
24226;DHT22;51462;51.422;5.514;2023-08-30T02:23:33;12.60;99.90
24226;DHT22;51462;51.422;5.514;2023-08-30T02:25:59;12.60;99.90
24226;DHT22;51462;51.422;5.514;2023-08-30T02:28:24;12.70;99.90
24226;DHT22;51462;51.422;5.514;2023-08-30T02:30:53;12.80;99.90
24226;DHT22;51462;51.422;5.514;2023-08-30T02:33:18;12.70;99.90
24226;DHT22;51462;51.422;5.514;2023-08-30T02:35:44;12.80;99.90
24226;DHT22;51462;51.422;5.514;2023-08-30T02:38:10;12.80;99.90
24226;DHT22;51462;51.422;5.514;2023-08-30T02:40:36;12.90;99.90
24226;DHT22;51462;51.422;5.514;2023-08-30T02:43:01;13.00;99.90
24226;DHT22;51462;51.422;5.514;2023-08-30T02:45:27;13.00;99.90
24226;DHT22;51462;51.422;5.514;2023-08-30T02:47:55;13.00;99.90
24226;DHT22;51462;51.422;5.514;2023-08-30T02:50:23;13.00;99.90
24226;DHT22;51462;51.422;5.514;2023-08-30T02:52:48;13.00;99.90
24226;DHT22;51462;51.422;5.514;2023-08-30T02:55:14;13.10;99.90
24226;DHT22;51462;51.422;5.514;2023-08-30T02:57:39;13.50;99.90
24226;DHT22;51462;51.422;5.514;2023-08-30T03:00:06;13.60;99.90
24226;DHT22;51462;51.422;5.514;2023-08-30T03:02:32;13.70;99.90
24226;DHT22;51462;51.422;5.514;2023-08-30T03:05:01;13.70;99.90
24226;DHT22;51462;51.422;5.514;2023-08-30T03:07:28;14.00;99.90
24226;DHT22;51462;51.422;5.514;2023-08-30T03:09:54;13.60;99.90
24226;DHT22;51462;51.422;5.514;2023-08-30T03:12:20;13.70;99.90
24226;DHT22;51462;51.422;5.514;2023-08-30T03:14:46;14.10;99.90
24226;DHT22;51462;51.422;5.514;2023-08-30T03:17:12;14.10;99.90
24226;DHT22;51462;51.422;5.514;2023-08-30T03:19:37;14.20;99.90
24226;DHT22;51462;51.422;5.514;2023-08-30T03:22:03;14.00;99.90
24226;DHT22;51462;51.422;5.514;2023-08-30T03:24:29;13.70;99.90
24226;DHT22;51462;51.422;5.514;2023-08-30T03:26:54;13.60;99.90
24226;DHT22;51462;51.422;5.514;2023-08-30T03:29:20;13.70;99.90
24226;DHT22;51462;51.422;5.514;2023-08-30T03:31:46;13.60;99.90
24226;DHT22;51462;51.422;5.514;2023-08-30T03:34:11;13.80;99.90
24226;DHT22;51462;51.422;5.514;2023-08-30T03:36:37;13.70;99.90
24226;DHT22;51462;51.422;5.514;2023-08-30T03:39:03;13.90;99.90
24226;DHT22;51462;51.422;5.514;2023-08-30T03:41:29;14.10;99.90
24226;DHT22;51462;51.422;5.514;2023-08-30T03:43:54;14.30;99.90
24226;DHT22;51462;51.422;5.514;2023-08-30T03:46:20;14.00;99.90
24226;DHT22;51462;51.422;5.514;2023-08-30T03:48:46;14.20;99.90
24226;DHT22;51462;51.422;5.514;2023-08-30T03:51:11;14.30;99.90
24226;DHT22;51462;51.422;5.514;2023-08-30T03:53:37;14.20;99.90
24226;DHT22;51462;51.422;5.514;2023-08-30T03:56:03;14.10;99.90
24226;DHT22;51462;51.422;5.514;2023-08-30T03:58:29;14.30;99.90
24226;DHT22;51462;51.422;5.514;2023-08-30T04:00:56;14.10;99.90
24226;DHT22;51462;51.422;5.514;2023-08-30T04:03:22;14.10;99.90
24226;DHT22;51462;51.422;5.514;2023-08-30T04:05:47;14.30;99.90
24226;DHT22;51462;51.422;5.514;2023-08-30T04:08:13;14.30;99.90
24226;DHT22;51462;51.422;5.514;2023-08-30T04:10:40;14.20;99.90
24226;DHT22;51462;51.422;5.514;2023-08-30T04:13:07;14.20;99.90
24226;DHT22;51462;51.422;5.514;2023-08-30T04:15:34;14.40;99.90
24226;DHT22;51462;51.422;5.514;2023-08-30T04:18:01;14.40;99.90
24226;DHT22;51462;51.422;5.514;2023-08-30T04:20:27;14.10;99.90
24226;DHT22;51462;51.422;5.514;2023-08-30T04:22:52;14.30;99.90
24226;DHT22;51462;51.422;5.514;2023-08-30T04:25:20;14.30;99.90
24226;DHT22;51462;51.422;5.514;2023-08-30T04:27:46;14.50;99.90
24226;DHT22;51462;51.422;5.514;2023-08-30T04:30:12;14.40;99.90
24226;DHT22;51462;51.422;5.514;2023-08-30T04:32:38;14.50;99.90
24226;DHT22;51462;51.422;5.514;2023-08-30T04:35:03;14.40;99.90
24226;DHT22;51462;51.422;5.514;2023-08-30T04:37:32;14.20;99.90
24226;DHT22;51462;51.422;5.514;2023-08-30T04:39:57;14.20;99.90
24226;DHT22;51462;51.422;5.514;2023-08-30T04:42:23;14.20;99.90
24226;DHT22;51462;51.422;5.514;2023-08-30T04:44:49;14.20;99.90
24226;DHT22;51462;51.422;5.514;2023-08-30T04:47:15;14.10;99.90
24226;DHT22;51462;51.422;5.514;2023-08-30T04:49:40;13.90;99.90
24226;DHT22;51462;51.422;5.514;2023-08-30T04:52:06;14.00;99.90
24226;DHT22;51462;51.422;5.514;2023-08-30T04:54:31;14.00;99.90
24226;DHT22;51462;51.422;5.514;2023-08-30T04:56:57;14.10;99.90
24226;DHT22;51462;51.422;5.514;2023-08-30T04:59:23;14.10;99.90
24226;DHT22;51462;51.422;5.514;2023-08-30T05:01:49;14.00;99.90
24226;DHT22;51462;51.422;5.514;2023-08-30T05:04:17;13.80;99.90
24226;DHT22;51462;51.422;5.514;2023-08-30T05:06:43;13.80;99.90
24226;DHT22;51462;51.422;5.514;2023-08-30T05:09:08;13.90;99.90
24226;DHT22;51462;51.422;5.514;2023-08-30T05:11:34;14.50;99.90
24226;DHT22;51462;51.422;5.514;2023-08-30T05:13:59;14.40;99.90
24226;DHT22;51462;51.422;5.514;2023-08-30T05:16:25;14.60;99.90
24226;DHT22;51462;51.422;5.514;2023-08-30T05:18:51;14.60;99.90
24226;DHT22;51462;51.422;5.514;2023-08-30T05:21:16;14.60;99.90
24226;DHT22;51462;51.422;5.514;2023-08-30T05:23:42;14.50;99.90
24226;DHT22;51462;51.422;5.514;2023-08-30T05:26:09;14.60;99.90
24226;DHT22;51462;51.422;5.514;2023-08-30T05:28:35;14.60;99.90
24226;DHT22;51462;51.422;5.514;2023-08-30T05:31:00;14.70;99.90
24226;DHT22;51462;51.422;5.514;2023-08-30T05:33:26;14.80;99.90
24226;DHT22;51462;51.422;5.514;2023-08-30T05:35:51;15.00;99.90
24226;DHT22;51462;51.422;5.514;2023-08-30T05:38:17;14.90;99.90
24226;DHT22;51462;51.422;5.514;2023-08-30T05:40:42;14.50;99.90
24226;DHT22;51462;51.422;5.514;2023-08-30T05:43:10;14.60;99.90
24226;DHT22;51462;51.422;5.514;2023-08-30T05:45:36;14.70;99.90
24226;DHT22;51462;51.422;5.514;2023-08-30T05:48:03;14.90;99.90
24226;DHT22;51462;51.422;5.514;2023-08-30T05:50:29;15.10;99.90
24226;DHT22;51462;51.422;5.514;2023-08-30T05:52:54;15.00;99.90
24226;DHT22;51462;51.422;5.514;2023-08-30T05:55:20;15.40;99.90
24226;DHT22;51462;51.422;5.514;2023-08-30T05:57:46;15.10;99.90
24226;DHT22;51462;51.422;5.514;2023-08-30T06:00:12;15.20;99.90
24226;DHT22;51462;51.422;5.514;2023-08-30T06:02:38;15.10;99.90
24226;DHT22;51462;51.422;5.514;2023-08-30T06:05:04;15.30;99.90
24226;DHT22;51462;51.422;5.514;2023-08-30T06:07:30;15.20;99.90
24226;DHT22;51462;51.422;5.514;2023-08-30T06:09:55;15.50;99.90
24226;DHT22;51462;51.422;5.514;2023-08-30T06:12:21;15.30;99.90
24226;DHT22;51462;51.422;5.514;2023-08-30T06:14:47;15.30;99.90
24226;DHT22;51462;51.422;5.514;2023-08-30T06:17:17;15.30;99.90
24226;DHT22;51462;51.422;5.514;2023-08-30T06:19:44;15.50;99.90
24226;DHT22;51462;51.422;5.514;2023-08-30T06:22:09;15.50;99.90
24226;DHT22;51462;51.422;5.514;2023-08-30T06:24:35;15.60;99.90
24226;DHT22;51462;51.422;5.514;2023-08-30T06:27:00;15.60;99.90
24226;DHT22;51462;51.422;5.514;2023-08-30T06:29:26;15.70;99.90
24226;DHT22;51462;51.422;5.514;2023-08-30T06:31:51;15.70;99.90
24226;DHT22;51462;51.422;5.514;2023-08-30T06:34:17;15.50;99.90
24226;DHT22;51462;51.422;5.514;2023-08-30T06:36:43;15.60;99.90
24226;DHT22;51462;51.422;5.514;2023-08-30T06:39:08;15.30;99.90
24226;DHT22;51462;51.422;5.514;2023-08-30T06:41:34;15.50;99.90
24226;DHT22;51462;51.422;5.514;2023-08-30T06:43:59;15.70;99.90
24226;DHT22;51462;51.422;5.514;2023-08-30T06:46:25;15.50;99.90
24226;DHT22;51462;51.422;5.514;2023-08-30T06:48:51;15.50;99.90
24226;DHT22;51462;51.422;5.514;2023-08-30T06:51:16;15.40;99.90
24226;DHT22;51462;51.422;5.514;2023-08-30T06:53:42;15.60;99.90
24226;DHT22;51462;51.422;5.514;2023-08-30T06:56:07;15.50;99.90
24226;DHT22;51462;51.422;5.514;2023-08-30T06:58:33;15.40;99.90
24226;DHT22;51462;51.422;5.514;2023-08-30T07:00:58;15.80;99.90
24226;DHT22;51462;51.422;5.514;2023-08-30T07:03:24;15.80;99.90
24226;DHT22;51462;51.422;5.514;2023-08-30T07:05:53;15.60;99.90
24226;DHT22;51462;51.422;5.514;2023-08-30T07:08:18;15.40;99.90
24226;DHT22;51462;51.422;5.514;2023-08-30T07:10:44;15.60;99.90
24226;DHT22;51462;51.422;5.514;2023-08-30T07:13:10;15.20;99.90
24226;DHT22;51462;51.422;5.514;2023-08-30T07:15:41;15.50;99.90
24226;DHT22;51462;51.422;5.514;2023-08-30T07:18:10;15.50;99.90
24226;DHT22;51462;51.422;5.514;2023-08-30T07:20:38;15.40;99.90
24226;DHT22;51462;51.422;5.514;2023-08-30T07:23:03;15.30;99.90
24226;DHT22;51462;51.422;5.514;2023-08-30T07:25:30;15.40;99.90
24226;DHT22;51462;51.422;5.514;2023-08-30T07:27:56;15.70;99.90
24226;DHT22;51462;51.422;5.514;2023-08-30T07:30:22;15.50;99.90
24226;DHT22;51462;51.422;5.514;2023-08-30T07:32:47;15.40;99.90
24226;DHT22;51462;51.422;5.514;2023-08-30T07:35:13;15.40;99.90
24226;DHT22;51462;51.422;5.514;2023-08-30T07:37:39;15.50;99.90
24226;DHT22;51462;51.422;5.514;2023-08-30T07:40:05;15.60;99.90
24226;DHT22;51462;51.422;5.514;2023-08-30T07:42:31;15.50;99.90
24226;DHT22;51462;51.422;5.514;2023-08-30T07:44:56;15.50;99.90
24226;DHT22;51462;51.422;5.514;2023-08-30T07:47:22;15.40;99.90
24226;DHT22;51462;51.422;5.514;2023-08-30T07:49:47;15.40;99.90
24226;DHT22;51462;51.422;5.514;2023-08-30T07:52:13;15.30;99.90
24226;DHT22;51462;51.422;5.514;2023-08-30T07:54:40;15.00;99.90
24226;DHT22;51462;51.422;5.514;2023-08-30T07:57:06;15.00;99.90
24226;DHT22;51462;51.422;5.514;2023-08-30T07:59:38;15.30;99.90
24226;DHT22;51462;51.422;5.514;2023-08-30T08:02:07;15.40;99.90
24226;DHT22;51462;51.422;5.514;2023-08-30T08:04:33;15.40;99.90
24226;DHT22;51462;51.422;5.514;2023-08-30T08:06:59;15.40;99.90
24226;DHT22;51462;51.422;5.514;2023-08-30T08:09:25;15.60;99.90
24226;DHT22;51462;51.422;5.514;2023-08-30T08:11:51;15.40;99.90
24226;DHT22;51462;51.422;5.514;2023-08-30T08:14:16;15.30;99.90
24226;DHT22;51462;51.422;5.514;2023-08-30T08:16:42;15.10;99.90
24226;DHT22;51462;51.422;5.514;2023-08-30T08:19:07;15.10;99.90
24226;DHT22;51462;51.422;5.514;2023-08-30T08:21:34;15.20;99.90
24226;DHT22;51462;51.422;5.514;2023-08-30T08:24:00;15.20;99.90
24226;DHT22;51462;51.422;5.514;2023-08-30T08:26:26;15.40;99.90
24226;DHT22;51462;51.422;5.514;2023-08-30T08:28:51;15.50;99.90
24226;DHT22;51462;51.422;5.514;2023-08-30T08:31:17;15.40;99.90
24226;DHT22;51462;51.422;5.514;2023-08-30T08:33:43;15.40;99.90
24226;DHT22;51462;51.422;5.514;2023-08-30T08:36:09;15.30;99.90
24226;DHT22;51462;51.422;5.514;2023-08-30T08:38:35;15.10;99.90
24226;DHT22;51462;51.422;5.514;2023-08-30T08:41:05;15.10;99.90
24226;DHT22;51462;51.422;5.514;2023-08-30T08:43:33;15.40;99.90
24226;DHT22;51462;51.422;5.514;2023-08-30T08:46:00;15.40;99.90
24226;DHT22;51462;51.422;5.514;2023-08-30T08:48:28;15.30;99.90
24226;DHT22;51462;51.422;5.514;2023-08-30T08:50:55;15.50;99.90
24226;DHT22;51462;51.422;5.514;2023-08-30T08:53:21;15.50;99.90
24226;DHT22;51462;51.422;5.514;2023-08-30T08:55:48;15.60;99.90
24226;DHT22;51462;51.422;5.514;2023-08-30T08:58:14;15.40;99.90
24226;DHT22;51462;51.422;5.514;2023-08-30T09:00:42;15.30;99.90
24226;DHT22;51462;51.422;5.514;2023-08-30T09:03:08;15.30;99.90
24226;DHT22;51462;51.422;5.514;2023-08-30T09:05:37;15.40;99.90
24226;DHT22;51462;51.422;5.514;2023-08-30T09:08:04;15.40;99.90
24226;DHT22;51462;51.422;5.514;2023-08-30T09:10:34;15.20;99.90
24226;DHT22;51462;51.422;5.514;2023-08-30T09:13:00;15.30;99.90
24226;DHT22;51462;51.422;5.514;2023-08-30T09:15:35;15.50;99.90
24226;DHT22;51462;51.422;5.514;2023-08-30T09:18:04;15.50;99.90
24226;DHT22;51462;51.422;5.514;2023-08-30T09:20:30;15.30;99.90
24226;DHT22;51462;51.422;5.514;2023-08-30T09:22:55;15.20;99.90
24226;DHT22;51462;51.422;5.514;2023-08-30T09:25:25;15.30;99.90
24226;DHT22;51462;51.422;5.514;2023-08-30T09:27:58;15.30;99.90
24226;DHT22;51462;51.422;5.514;2023-08-30T09:30:27;15.50;99.90
24226;DHT22;51462;51.422;5.514;2023-08-30T09:32:53;15.30;99.90
24226;DHT22;51462;51.422;5.514;2023-08-30T09:35:18;15.30;99.90
24226;DHT22;51462;51.422;5.514;2023-08-30T09:37:45;15.30;99.90
24226;DHT22;51462;51.422;5.514;2023-08-30T09:40:10;15.40;99.90
24226;DHT22;51462;51.422;5.514;2023-08-30T09:42:43;15.60;99.90
24226;DHT22;51462;51.422;5.514;2023-08-30T09:45:38;15.60;99.90
24226;DHT22;51462;51.422;5.514;2023-08-30T09:48:05;15.80;99.90
24226;DHT22;51462;51.422;5.514;2023-08-30T09:50:35;15.70;99.90
24226;DHT22;51462;51.422;5.514;2023-08-30T09:53:10;15.80;99.90
24226;DHT22;51462;51.422;5.514;2023-08-30T09:55:37;15.80;99.90
24226;DHT22;51462;51.422;5.514;2023-08-30T09:58:03;15.90;99.90
24226;DHT22;51462;51.422;5.514;2023-08-30T10:00:33;16.00;99.90
24226;DHT22;51462;51.422;5.514;2023-08-30T10:03:02;16.00;99.90
24226;DHT22;51462;51.422;5.514;2023-08-30T10:05:29;16.00;99.90
24226;DHT22;51462;51.422;5.514;2023-08-30T10:07:56;16.20;99.90
24226;DHT22;51462;51.422;5.514;2023-08-30T10:10:23;16.40;99.90
24226;DHT22;51462;51.422;5.514;2023-08-30T10:12:49;16.40;99.90
24226;DHT22;51462;51.422;5.514;2023-08-30T10:15:15;16.40;99.90
24226;DHT22;51462;51.422;5.514;2023-08-30T10:17:45;16.50;99.90
24226;DHT22;51462;51.422;5.514;2023-08-30T10:20:11;16.60;99.90
24226;DHT22;51462;51.422;5.514;2023-08-30T10:22:40;16.70;99.90
24226;DHT22;51462;51.422;5.514;2023-08-30T10:25:10;16.60;99.90
24226;DHT22;51462;51.422;5.514;2023-08-30T10:27:39;16.70;99.90
24226;DHT22;51462;51.422;5.514;2023-08-30T10:30:09;16.70;99.90
24226;DHT22;51462;51.422;5.514;2023-08-30T10:32:42;16.80;99.90
24226;DHT22;51462;51.422;5.514;2023-08-30T10:35:12;16.90;99.90
24226;DHT22;51462;51.422;5.514;2023-08-30T10:37:41;16.90;99.90
24226;DHT22;51462;51.422;5.514;2023-08-30T10:40:08;16.80;99.90
24226;DHT22;51462;51.422;5.514;2023-08-30T10:42:34;16.80;99.90
24226;DHT22;51462;51.422;5.514;2023-08-30T10:47:31;16.90;99.90
24226;DHT22;51462;51.422;5.514;2023-08-30T10:49:58;17.00;99.90
24226;DHT22;51462;51.422;5.514;2023-08-30T10:52:25;17.20;99.90
24226;DHT22;51462;51.422;5.514;2023-08-30T10:54:51;17.20;99.90
24226;DHT22;51462;51.422;5.514;2023-08-30T10:57:24;17.30;99.90
24226;DHT22;51462;51.422;5.514;2023-08-30T11:00:17;17.50;99.90
24226;DHT22;51462;51.422;5.514;2023-08-30T11:02:48;17.70;99.90
24226;DHT22;51462;51.422;5.514;2023-08-30T11:05:20;17.80;99.90
24226;DHT22;51462;51.422;5.514;2023-08-30T11:07:46;17.90;99.90
24226;DHT22;51462;51.422;5.514;2023-08-30T11:10:12;18.10;99.90
24226;DHT22;51462;51.422;5.514;2023-08-30T11:12:41;18.10;99.90
24226;DHT22;51462;51.422;5.514;2023-08-30T11:15:09;18.30;99.90
24226;DHT22;51462;51.422;5.514;2023-08-30T11:17:34;18.30;99.90
24226;DHT22;51462;51.422;5.514;2023-08-30T11:20:11;18.30;99.90
24226;DHT22;51462;51.422;5.514;2023-08-30T11:25:08;18.50;99.90
24226;DHT22;51462;51.422;5.514;2023-08-30T11:27:34;18.50;99.90
24226;DHT22;51462;51.422;5.514;2023-08-30T11:30:01;18.40;99.90
24226;DHT22;51462;51.422;5.514;2023-08-30T11:32:31;18.40;99.90
24226;DHT22;51462;51.422;5.514;2023-08-30T11:34:57;18.40;99.90
24226;DHT22;51462;51.422;5.514;2023-08-30T11:37:27;18.40;99.90
24226;DHT22;51462;51.422;5.514;2023-08-30T11:39:57;18.60;99.90
24226;DHT22;51462;51.422;5.514;2023-08-30T11:42:23;18.90;99.90
24226;DHT22;51462;51.422;5.514;2023-08-30T11:44:52;19.00;99.90
24226;DHT22;51462;51.422;5.514;2023-08-30T11:47:23;18.90;99.90
24226;DHT22;51462;51.422;5.514;2023-08-30T11:49:50;18.90;99.90
24226;DHT22;51462;51.422;5.514;2023-08-30T11:52:18;18.90;99.90
24226;DHT22;51462;51.422;5.514;2023-08-30T11:54:47;18.80;99.90
24226;DHT22;51462;51.422;5.514;2023-08-30T11:57:13;18.80;99.90
24226;DHT22;51462;51.422;5.514;2023-08-30T11:59:39;18.80;99.90
24226;DHT22;51462;51.422;5.514;2023-08-30T12:02:05;18.70;99.90
24226;DHT22;51462;51.422;5.514;2023-08-30T12:04:31;18.70;99.90
24226;DHT22;51462;51.422;5.514;2023-08-30T12:06:57;18.60;99.90
24226;DHT22;51462;51.422;5.514;2023-08-30T12:09:30;18.40;99.90
24226;DHT22;51462;51.422;5.514;2023-08-30T12:12:05;18.40;99.90
24226;DHT22;51462;51.422;5.514;2023-08-30T12:14:35;18.50;99.90
24226;DHT22;51462;51.422;5.514;2023-08-30T12:17:00;18.70;99.90
24226;DHT22;51462;51.422;5.514;2023-08-30T12:19:28;18.80;99.90
24226;DHT22;51462;51.422;5.514;2023-08-30T12:21:53;19.30;99.90
24226;DHT22;51462;51.422;5.514;2023-08-30T12:24:19;19.50;99.90
24226;DHT22;51462;51.422;5.514;2023-08-30T12:26:44;19.80;99.90
24226;DHT22;51462;51.422;5.514;2023-08-30T12:29:10;19.90;99.90
24226;DHT22;51462;51.422;5.514;2023-08-30T12:31:36;19.90;99.90
24226;DHT22;51462;51.422;5.514;2023-08-30T12:34:03;19.80;99.90
24226;DHT22;51462;51.422;5.514;2023-08-30T12:36:29;19.60;99.90
24226;DHT22;51462;51.422;5.514;2023-08-30T12:38:54;19.40;99.90
24226;DHT22;51462;51.422;5.514;2023-08-30T12:41:20;19.10;99.90
24226;DHT22;51462;51.422;5.514;2023-08-30T12:43:49;19.00;99.90
24226;DHT22;51462;51.422;5.514;2023-08-30T12:46:14;19.00;99.90
24226;DHT22;51462;51.422;5.514;2023-08-30T12:48:40;19.10;99.90
24226;DHT22;51462;51.422;5.514;2023-08-30T12:51:06;19.30;99.90
24226;DHT22;51462;51.422;5.514;2023-08-30T12:53:32;19.40;99.90
24226;DHT22;51462;51.422;5.514;2023-08-30T12:55:57;19.50;99.90
24226;DHT22;51462;51.422;5.514;2023-08-30T12:58:23;19.60;99.90
24226;DHT22;51462;51.422;5.514;2023-08-30T13:00:49;19.50;99.90
24226;DHT22;51462;51.422;5.514;2023-08-30T13:03:15;19.60;99.90
24226;DHT22;51462;51.422;5.514;2023-08-30T13:05:41;19.60;99.90
24226;DHT22;51462;51.422;5.514;2023-08-30T13:08:07;19.40;99.90
24226;DHT22;51462;51.422;5.514;2023-08-30T13:10:32;19.70;99.90
24226;DHT22;51462;51.422;5.514;2023-08-30T13:12:58;19.80;99.90
24226;DHT22;51462;51.422;5.514;2023-08-30T13:15:24;20.20;99.90
24226;DHT22;51462;51.422;5.514;2023-08-30T13:17:49;20.20;99.90
24226;DHT22;51462;51.422;5.514;2023-08-30T13:20:15;19.90;99.90
24226;DHT22;51462;51.422;5.514;2023-08-30T13:22:41;19.70;99.90
24226;DHT22;51462;51.422;5.514;2023-08-30T13:25:07;19.50;99.90
24226;DHT22;51462;51.422;5.514;2023-08-30T13:27:33;19.70;99.90
24226;DHT22;51462;51.422;5.514;2023-08-30T13:29:58;20.10;99.90
24226;DHT22;51462;51.422;5.514;2023-08-30T13:32:24;20.20;99.90
24226;DHT22;51462;51.422;5.514;2023-08-30T13:34:50;20.30;99.90
24226;DHT22;51462;51.422;5.514;2023-08-30T13:37:16;20.50;99.90
24226;DHT22;51462;51.422;5.514;2023-08-30T13:39:42;20.60;99.90
24226;DHT22;51462;51.422;5.514;2023-08-30T13:42:08;20.90;99.90
24226;DHT22;51462;51.422;5.514;2023-08-30T13:44:34;21.10;99.90
24226;DHT22;51462;51.422;5.514;2023-08-30T13:47:05;21.30;99.90
24226;DHT22;51462;51.422;5.514;2023-08-30T13:49:31;21.00;99.90
24226;DHT22;51462;51.422;5.514;2023-08-30T13:51:58;20.70;99.90
24226;DHT22;51462;51.422;5.514;2023-08-30T13:54:24;20.50;99.90
24226;DHT22;51462;51.422;5.514;2023-08-30T13:56:49;21.30;99.90
24226;DHT22;51462;51.422;5.514;2023-08-30T13:59:16;21.60;99.90
24226;DHT22;51462;51.422;5.514;2023-08-30T14:01:41;21.20;99.90
24226;DHT22;51462;51.422;5.514;2023-08-30T14:04:08;22.40;99.90
24226;DHT22;51462;51.422;5.514;2023-08-30T14:06:33;22.80;99.90
24226;DHT22;51462;51.422;5.514;2023-08-30T14:08:59;23.30;99.90
24226;DHT22;51462;51.422;5.514;2023-08-30T14:11:25;23.30;99.90
24226;DHT22;51462;51.422;5.514;2023-08-30T14:13:51;23.30;99.90
24226;DHT22;51462;51.422;5.514;2023-08-30T14:16:16;23.80;99.90
24226;DHT22;51462;51.422;5.514;2023-08-30T14:18:43;24.20;99.90
24226;DHT22;51462;51.422;5.514;2023-08-30T14:21:08;24.30;99.90
24226;DHT22;51462;51.422;5.514;2023-08-30T14:23:34;24.60;99.90
24226;DHT22;51462;51.422;5.514;2023-08-30T14:26:03;24.20;99.90
24226;DHT22;51462;51.422;5.514;2023-08-30T14:28:39;23.90;99.90
24226;DHT22;51462;51.422;5.514;2023-08-30T14:31:11;24.00;99.90
24226;DHT22;51462;51.422;5.514;2023-08-30T14:33:37;24.20;99.90
24226;DHT22;51462;51.422;5.514;2023-08-30T14:36:04;24.00;99.90
24226;DHT22;51462;51.422;5.514;2023-08-30T14:38:33;24.20;99.90
24226;DHT22;51462;51.422;5.514;2023-08-30T14:41:00;23.20;99.90
24226;DHT22;51462;51.422;5.514;2023-08-30T14:43:26;23.90;99.90
24226;DHT22;51462;51.422;5.514;2023-08-30T14:46:02;23.60;99.90
24226;DHT22;51462;51.422;5.514;2023-08-30T14:48:28;22.70;99.90
24226;DHT22;51462;51.422;5.514;2023-08-30T14:50:54;22.00;99.90
24226;DHT22;51462;51.422;5.514;2023-08-30T14:53:19;22.50;99.90
24226;DHT22;51462;51.422;5.514;2023-08-30T14:55:45;22.00;99.90
24226;DHT22;51462;51.422;5.514;2023-08-30T14:58:12;21.60;99.90
24226;DHT22;51462;51.422;5.514;2023-08-30T15:00:37;20.90;99.90
24226;DHT22;51462;51.422;5.514;2023-08-30T15:03:03;20.80;99.90
24226;DHT22;51462;51.422;5.514;2023-08-30T15:05:29;20.70;99.90
24226;DHT22;51462;51.422;5.514;2023-08-30T15:07:54;20.80;99.90
24226;DHT22;51462;51.422;5.514;2023-08-30T15:10:20;20.90;99.90
24226;DHT22;51462;51.422;5.514;2023-08-30T15:12:46;21.00;99.90
24226;DHT22;51462;51.422;5.514;2023-08-30T15:15:11;20.80;99.90
24226;DHT22;51462;51.422;5.514;2023-08-30T15:17:37;21.10;99.90
24226;DHT22;51462;51.422;5.514;2023-08-30T15:20:03;21.40;99.90
24226;DHT22;51462;51.422;5.514;2023-08-30T15:22:29;21.20;99.90
24226;DHT22;51462;51.422;5.514;2023-08-30T15:24:54;20.60;99.90
24226;DHT22;51462;51.422;5.514;2023-08-30T15:27:20;21.00;99.90
24226;DHT22;51462;51.422;5.514;2023-08-30T15:29:47;21.60;99.90
24226;DHT22;51462;51.422;5.514;2023-08-30T15:32:17;21.50;99.90
24226;DHT22;51462;51.422;5.514;2023-08-30T15:34:43;21.60;99.90